Time;durP1;ratioP1;P1;durP2;ratioP2;P2;SDS_P1;SDS_P2;PMS_P1;PMS_P2;Temp;Humidity;BMP_temperature;BMP_pressure;BME280_temperature;BME280_humidity;BME280_pressure;Samples;Min_cycle;Max_cycle;Signal;HPM_P1;HPM_P2
2023/06/18 00:00:05;;;;;;;9.55;4.40;;;26.10;40.20;;;;;;6240660;28;20117;-69
2023/06/18 00:03:06;;;;;;;6.55;4.25;;;26.00;40.40;;;;;;6239125;28;20565;-71
2023/06/18 00:06:11;;;;;;;11.25;4.45;;;26.00;40.60;;;;;;6240863;28;20034;-69
2023/06/18 00:09:12;;;;;;;10.48;4.75;;;26.00;40.90;;;;;;6262732;28;20097;-69
2023/06/18 00:12:13;;;;;;;6.70;4.25;;;26.00;41.20;;;;;;6265348;28;20503;-70
2023/06/18 00:15:14;;;;;;;5.82;4.38;;;25.90;41.30;;;;;;6264012;28;20028;-69
2023/06/18 00:18:16;;;;;;;10.73;4.32;;;25.80;41.40;;;;;;6265807;28;20029;-68
2023/06/18 00:21:17;;;;;;;11.88;4.70;;;25.80;41.60;;;;;;6266163;28;20074;-69
2023/06/18 00:24:19;;;;;;;7.28;3.95;;;25.70;41.70;;;;;;6263556;28;20033;-71
2023/06/18 00:27:20;;;;;;;7.80;4.38;;;25.70;41.80;;;;;;6266066;28;20628;-70
2023/06/18 00:30:21;;;;;;;5.78;4.05;;;25.60;41.80;;;;;;6263493;28;20017;-69
2023/06/18 00:33:27;;;;;;;7.03;4.10;;;25.60;41.80;;;;;;6263169;28;20492;-69
2023/06/18 00:36:29;;;;;;;5.88;3.72;;;25.50;41.70;;;;;;6263120;28;20040;-70
2023/06/18 00:39:30;;;;;;;12.27;4.30;;;25.50;41.70;;;;;;6263612;28;20408;-70
2023/06/18 00:42:32;;;;;;;7.68;3.88;;;25.50;41.70;;;;;;6262830;28;20048;-70
2023/06/18 00:45:34;;;;;;;7.85;4.28;;;25.40;41.60;;;;;;6262918;28;20032;-70
2023/06/18 00:48:35;;;;;;;6.15;3.97;;;25.50;41.60;;;;;;6262648;28;20037;-70
2023/06/18 00:51:36;;;;;;;6.82;4.18;;;25.40;41.50;;;;;;6261929;28;20127;-69
2023/06/18 00:54:41;;;;;;;7.75;4.53;;;25.40;41.60;;;;;;6262551;28;20349;-69
2023/06/18 00:57:49;;;;;;;8.90;4.30;;;25.40;41.70;;;;;;6263085;28;20360;-69
2023/06/18 01:00:53;;;;;;;9.38;4.25;;;25.40;41.70;;;;;;6279714;28;20470;-70
2023/06/18 01:03:56;;;;;;;7.03;4.55;;;25.40;41.70;;;;;;6262605;28;20068;-70
2023/06/18 01:07:01;;;;;;;6.78;4.25;;;25.40;41.70;;;;;;6258072;28;20038;-70
2023/06/18 01:10:04;;;;;;;6.30;4.07;;;25.30;41.90;;;;;;6257013;28;20024;-70
2023/06/18 01:13:07;;;;;;;10.15;4.65;;;25.30;42.00;;;;;;6263864;28;20040;-70
2023/06/18 01:16:09;;;;;;;6.70;4.30;;;25.20;42.10;;;;;;6246086;28;20533;-69
2023/06/18 01:19:11;;;;;;;10.75;4.95;;;25.20;42.30;;;;;;6264198;28;20025;-70
2023/06/18 01:22:26;;;;;;;7.45;4.90;;;25.10;42.40;;;;;;6262258;28;20139;-70
2023/06/18 01:25:32;;;;;;;8.00;4.80;;;25.00;42.60;;;;;;6263014;28;20044;-71
2023/06/18 01:28:35;;;;;;;9.82;5.13;;;25.00;42.80;;;;;;6238288;28;20034;-70
2023/06/18 01:31:36;;;;;;;12.13;4.80;;;25.00;42.90;;;;;;6257421;28;20060;-69
2023/06/18 01:34:39;;;;;;;6.95;4.70;;;25.00;43.00;;;;;;6263602;28;20072;-69
2023/06/18 01:37:46;;;;;;;8.38;4.18;;;24.90;42.90;;;;;;6262216;28;20090;-69
2023/06/18 01:41:09;;;;;;;6.35;4.53;;;24.80;43.00;;;;;;6263808;28;20267;-69
2023/06/18 01:44:18;;;;;;;5.78;3.97;;;24.80;43.00;;;;;;6264926;28;20114;-69
2023/06/18 01:47:21;;;;;;;7.22;4.18;;;24.70;43.00;;;;;;6263012;28;20033;-70
2023/06/18 01:50:26;;;;;;;6.82;4.53;;;24.70;43.00;;;;;;6266229;28;20099;-70
2023/06/18 01:53:29;;;;;;;5.72;4.28;;;24.70;42.90;;;;;;6250559;28;20041;-71
2023/06/18 01:56:31;;;;;;;7.15;4.47;;;24.60;42.90;;;;;;6255281;28;20124;-72
2023/06/18 01:59:33;;;;;;;7.70;4.28;;;24.60;43.00;;;;;;6244402;28;20032;-69
2023/06/18 02:02:33;;;;;;;7.80;4.72;;;24.60;42.90;;;;;;6241979;28;20041;-69
2023/06/18 02:05:35;;;;;;;6.72;4.32;;;24.60;42.80;;;;;;6243979;28;20110;-69
2023/06/18 02:08:36;;;;;;;6.00;4.22;;;24.60;42.90;;;;;;6257600;28;20146;-69
2023/06/18 02:11:37;;;;;;;7.88;4.50;;;24.60;42.90;;;;;;6267894;28;20033;-69
2023/06/18 02:14:38;;;;;;;5.50;3.67;;;24.60;43.00;;;;;;6268265;28;20364;-69
2023/06/18 02:17:39;;;;;;;5.95;4.05;;;24.50;43.10;;;;;;6234083;28;20434;-69
2023/06/18 02:20:41;;;;;;;6.93;4.60;;;24.50;43.10;;;;;;6266346;28;20159;-69
2023/06/18 02:23:42;;;;;;;8.05;4.15;;;24.50;43.10;;;;;;6266347;28;20135;-69
2023/06/18 02:26:43;;;;;;;6.20;4.20;;;24.50;43.00;;;;;;6255926;28;20041;-69
2023/06/18 02:29:45;;;;;;;6.82;4.20;;;24.50;42.90;;;;;;6225312;28;20518;-70
2023/06/18 02:32:48;;;;;;;7.38;4.55;;;24.50;42.90;;;;;;6242759;28;20409;-69
2023/06/18 02:35:49;;;;;;;5.95;3.97;;;24.50;43.00;;;;;;6241660;28;20120;-69
2023/06/18 02:38:52;;;;;;;5.85;4.30;;;24.50;43.00;;;;;;6244647;28;20483;-71
2023/06/18 02:41:53;;;;;;;6.97;4.38;;;24.50;43.50;;;;;;6256945;28;20120;-69
2023/06/18 02:44:54;;;;;;;7.38;4.30;;;24.50;44.00;;;;;;6249139;28;20033;-70
2023/06/18 02:47:55;;;;;;;8.18;4.10;;;24.40;44.20;;;;;;6249495;28;20499;-69
2023/06/18 02:50:56;;;;;;;8.40;4.80;;;24.40;44.60;;;;;;6265565;28;20029;-70
2023/06/18 02:53:59;;;;;;;7.55;4.57;;;24.30;44.80;;;;;;6265565;28;20508;-70
2023/06/18 02:57:00;;;;;;;6.53;4.55;;;24.30;44.80;;;;;;6249461;28;20054;-70
2023/06/18 03:00:04;;;;;;;7.72;4.78;;;24.30;44.60;;;;;;6239999;28;20025;-70
2023/06/18 03:03:06;;;;;;;7.05;4.53;;;24.30;44.70;;;;;;6239973;28;20033;-69
2023/06/18 03:06:10;;;;;;;7.85;4.50;;;24.30;44.80;;;;;;6240695;28;20033;-69
2023/06/18 03:09:12;;;;;;;8.07;4.60;;;24.30;44.90;;;;;;6252412;28;20033;-69
2023/06/18 03:12:13;;;;;;;7.53;4.50;;;24.30;45.10;;;;;;6247835;28;20057;-69
2023/06/18 03:15:15;;;;;;;7.75;4.50;;;24.30;45.20;;;;;;6248851;28;20075;-69
2023/06/18 03:18:15;;;;;;;7.28;5.20;;;24.20;45.30;;;;;;6248916;28;20128;-71
2023/06/18 03:21:17;;;;;;;6.65;4.47;;;24.10;45.50;;;;;;6249082;28;20452;-69
2023/06/18 03:24:18;;;;;;;7.60;4.70;;;24.00;45.70;;;;;;6245415;28;20097;-69
2023/06/18 03:27:20;;;;;;;9.55;4.90;;;24.00;45.90;;;;;;6240628;28;20420;-69
2023/06/18 03:30:22;;;;;;;7.50;4.78;;;24.00;46.00;;;;;;6240545;28;20029;-70
2023/06/18 03:33:23;;;;;;;8.35;4.63;;;23.90;46.00;;;;;;6239799;28;20674;-70
2023/06/18 03:36:24;;;;;;;7.40;4.70;;;23.90;46.10;;;;;;6241631;28;20067;-70
2023/06/18 03:39:26;;;;;;;6.82;4.50;;;23.90;46.50;;;;;;6254373;28;20025;-70
2023/06/18 03:42:27;;;;;;;6.45;4.53;;;23.80;46.70;;;;;;6239796;28;20037;-70
2023/06/18 03:45:28;;;;;;;8.85;4.05;;;23.80;47.00;;;;;;6240106;28;20060;-69
2023/06/18 03:48:29;;;;;;;7.95;4.82;;;23.70;47.10;;;;;;6240227;28;20033;-69
2023/06/18 03:51:31;;;;;;;6.75;4.30;;;23.70;47.40;;;;;;6239882;28;20060;-70
2023/06/18 03:54:31;;;;;;;6.45;4.38;;;23.60;47.60;;;;;;6241606;28;20021;-68
2023/06/18 03:57:35;;;;;;;8.52;4.90;;;23.60;47.70;;;;;;6223565;28;20030;-69
2023/06/18 04:00:39;;;;;;;6.22;4.15;;;23.50;47.70;;;;;;6223345;28;20033;-68
2023/06/18 04:03:42;;;;;;;7.97;4.75;;;23.50;47.80;;;;;;6239278;28;20036;-69
2023/06/18 04:06:43;;;;;;;7.63;4.78;;;23.50;47.80;;;;;;6241867;28;20083;-70
2023/06/18 04:09:44;;;;;;;6.80;4.65;;;23.40;47.80;;;;;;6263979;28;20036;-70
2023/06/18 04:12:45;;;;;;;6.78;4.45;;;23.40;48.00;;;;;;6263396;28;20040;-69
2023/06/18 04:15:46;;;;;;;8.90;4.60;;;23.30;48.00;;;;;;6264808;28;20032;-70
2023/06/18 04:18:49;;;;;;;6.93;4.78;;;23.30;48.20;;;;;;6240600;28;20021;-70
2023/06/18 04:21:50;;;;;;;5.93;4.80;;;23.30;48.30;;;;;;6239455;28;20040;-68
2023/06/18 04:24:51;;;;;;;8.75;5.50;;;23.20;48.40;;;;;;6223194;28;20038;-71
2023/06/18 04:27:52;;;;;;;10.48;5.53;;;23.20;48.50;;;;;;6239473;28;20151;-69
2023/06/18 04:30:53;;;;;;;8.25;4.75;;;23.20;48.70;;;;;;6222154;28;20124;-69
2023/06/18 04:33:55;;;;;;;9.20;5.40;;;23.20;49.00;;;;;;6238198;28;20462;-69
2023/06/18 04:36:59;;;;;;;8.90;5.25;;;23.10;49.10;;;;;;6238920;28;20068;-70
2023/06/18 04:40:01;;;;;;;8.30;5.10;;;23.10;49.30;;;;;;6239023;28;20111;-67
2023/06/18 04:43:03;;;;;;;10.20;5.07;;;23.00;49.40;;;;;;6238427;28;20060;-70
2023/06/18 04:46:10;;;;;;;8.40;4.88;;;23.00;49.50;;;;;;6238924;28;20374;-71
2023/06/18 04:49:11;;;;;;;8.25;4.75;;;22.90;49.60;;;;;;6238481;28;20033;-69
2023/06/18 04:52:14;;;;;;;9.27;5.60;;;22.90;49.80;;;;;;6239987;28;20476;-69
2023/06/18 04:55:16;;;;;;;8.20;5.63;;;22.90;49.80;;;;;;6238558;28;20507;-70
2023/06/18 04:58:20;;;;;;;8.88;5.35;;;22.90;49.80;;;;;;6238786;28;20044;-69
2023/06/18 05:01:21;;;;;;;9.70;5.15;;;23.00;49.90;;;;;;6221901;28;20477;-71
2023/06/18 05:04:22;;;;;;;7.55;5.40;;;23.00;49.70;;;;;;6238163;28;20156;-69
2023/06/18 05:07:23;;;;;;;10.23;5.25;;;23.00;49.60;;;;;;6246089;28;20041;-69
2023/06/18 05:10:25;;;;;;;7.70;5.22;;;23.10;49.50;;;;;;6254969;28;20033;-69
2023/06/18 05:13:26;;;;;;;11.38;5.32;;;23.20;49.30;;;;;;6221826;28;20034;-70
2023/06/18 05:16:27;;;;;;;12.05;5.70;;;23.20;49.00;;;;;;6232286;28;20026;-70
2023/06/18 05:19:29;;;;;;;7.65;4.22;;;23.30;48.80;;;;;;6238297;28;20044;-68
2023/06/18 05:22:30;;;;;;;8.98;4.82;;;23.40;48.60;;;;;;6260629;28;20507;-70
2023/06/18 05:25:34;;;;;;;11.43;5.25;;;23.60;48.30;;;;;;6263100;28;20021;-69
2023/06/18 05:28:35;;;;;;;16.08;5.63;;;23.70;48.00;;;;;;6262527;28;20124;-70
2023/06/18 05:31:36;;;;;;;10.32;4.95;;;23.80;47.80;;;;;;6262209;28;20381;-70
2023/06/18 05:34:41;;;;;;;6.78;4.75;;;24.00;47.60;;;;;;6262465;28;20063;-69
2023/06/18 05:37:42;;;;;;;10.52;4.80;;;24.10;47.50;;;;;;6262596;28;20025;-72
2023/06/18 05:40:42;;;;;;;7.85;4.93;;;24.20;47.20;;;;;;6262877;28;20044;-69
2023/06/18 05:43:44;;;;;;;8.43;5.25;;;24.30;47.10;;;;;;6262151;28;20057;-69
2023/06/18 05:46:45;;;;;;;13.32;5.65;;;24.30;46.90;;;;;;6238761;28;20025;-72
2023/06/18 05:49:46;;;;;;;8.85;5.07;;;24.40;46.50;;;;;;6220733;28;20508;-72
2023/06/18 05:52:47;;;;;;;9.57;5.53;;;24.50;46.30;;;;;;6237543;28;20033;-71
2023/06/18 05:55:48;;;;;;;7.50;5.35;;;24.50;46.30;;;;;;6237709;28;20029;-73
2023/06/18 05:58:51;;;;;;;9.60;5.22;;;24.50;46.20;;;;;;6237983;28;20045;-72
2023/06/18 06:01:54;;;;;;;7.25;5.00;;;24.50;46.20;;;;;;6237292;28;20376;-73
2023/06/18 06:04:55;;;;;;;6.97;5.32;;;24.60;46.10;;;;;;6237557;28;20452;-72
2023/06/18 06:07:56;;;;;;;11.57;5.80;;;24.50;46.10;;;;;;6249815;28;20044;-73
2023/06/18 06:10:58;;;;;;;9.80;5.07;;;24.60;46.00;;;;;;6259486;28;20022;-71
2023/06/18 06:14:00;;;;;;;5.90;4.57;;;24.70;45.80;;;;;;6236574;28;20041;-71
2023/06/18 06:17:00;;;;;;;8.40;5.18;;;24.70;45.60;;;;;;6237293;28;20123;-71
2023/06/18 06:20:02;;;;;;;7.00;5.05;;;24.70;45.50;;;;;;6239222;28;20456;-73
2023/06/18 06:23:03;;;;;;;9.52;5.30;;;24.80;45.30;;;;;;6250912;28;20127;-73
2023/06/18 06:26:05;;;;;;;9.48;4.75;;;24.90;45.20;;;;;;6262361;28;20033;-73
2023/06/18 06:29:07;;;;;;;9.13;4.72;;;25.10;44.80;;;;;;6264145;28;20503;-71
2023/06/18 06:32:08;;;;;;;8.27;4.70;;;25.30;44.40;;;;;;6262602;28;20108;-72
2023/06/18 06:35:09;;;;;;;7.55;4.60;;;25.50;44.00;;;;;;6264474;28;20047;-72
2023/06/18 06:38:10;;;;;;;8.48;4.57;;;25.70;43.50;;;;;;6266465;28;20805;-71
2023/06/18 06:41:11;;;;;;;6.70;4.82;;;25.80;43.00;;;;;;6266439;28;20033;-73
2023/06/18 06:44:13;;;;;;;7.97;5.05;;;25.90;42.60;;;;;;6263976;28;20029;-72
2023/06/18 06:47:25;;;;;;;9.00;4.43;;;26.00;42.30;;;;;;6226948;28;20116;-70
2023/06/18 06:50:45;;;;;;;5.82;4.57;;;26.10;42.10;;;;;;6243405;28;20037;-71
2023/06/18 06:53:52;;;;;;;8.10;4.30;;;26.00;41.80;;;;;;6241719;28;20095;-74
2023/06/18 06:56:54;;;;;;;8.90;4.15;;;26.00;42.00;;;;;;6241987;28;20040;-71
2023/06/18 06:59:55;;;;;;;11.57;4.60;;;26.10;42.20;;;;;;6225194;28;20076;-72
2023/06/18 07:02:55;;;;;;;8.15;4.90;;;26.20;41.90;;;;;;6229067;28;20041;-71
2023/06/18 07:05:56;;;;;;;8.57;4.82;;;26.30;41.50;;;;;;6266103;28;20033;-71
2023/06/18 07:08:59;;;;;;;7.45;5.25;;;26.40;41.10;;;;;;6243745;28;20025;-72
2023/06/18 07:11:59;;;;;;;7.20;4.40;;;26.50;41.00;;;;;;6242089;28;20422;-71
2023/06/18 07:15:00;;;;;;;5.63;4.40;;;26.80;40.90;;;;;;6241373;28;20056;-74
2023/06/18 07:18:01;;;;;;;6.68;4.63;;;27.10;40.50;;;;;;6227337;28;20113;-71
2023/06/18 07:21:02;;;;;;;9.43;4.20;;;27.40;40.20;;;;;;6265483;28;20036;-70
2023/06/18 07:24:03;;;;;;;7.30;4.25;;;27.60;39.60;;;;;;6240742;28;20149;-72
2023/06/18 07:27:04;;;;;;;8.15;4.90;;;27.80;39.30;;;;;;6240882;28;20087;-72
2023/06/18 07:30:06;;;;;;;10.00;4.53;;;28.00;39.10;;;;;;6240742;28;20072;-71
2023/06/18 07:33:06;;;;;;;5.65;4.05;;;28.20;38.80;;;;;;6241319;28;20037;-74
2023/06/18 07:36:08;;;;;;;4.95;3.78;;;28.20;38.50;;;;;;6241752;28;20025;-72
2023/06/18 07:39:09;;;;;;;8.02;4.10;;;28.30;38.40;;;;;;6241952;28;20107;-73
2023/06/18 07:42:11;;;;;;;6.55;4.53;;;28.40;38.10;;;;;;6256669;28;20408;-72
2023/06/18 07:45:12;;;;;;;9.68;4.22;;;28.40;37.40;;;;;;6264387;28;20033;-73
2023/06/18 07:48:13;;;;;;;9.57;4.25;;;28.40;37.50;;;;;;6265690;28;20094;-70
2023/06/18 07:51:14;;;;;;;5.97;4.00;;;28.50;37.30;;;;;;6265724;28;20083;-70
2023/06/18 07:54:18;;;;;;;6.45;4.47;;;28.60;37.20;;;;;;6263598;28;20033;-70
2023/06/18 07:57:19;;;;;;;4.88;3.53;;;28.80;36.70;;;;;;6263680;28;20033;-70
2023/06/18 08:00:20;;;;;;;5.75;3.85;;;28.80;36.10;;;;;;6263870;28;20059;-70
2023/06/18 08:03:21;;;;;;;9.55;4.45;;;28.80;35.80;;;;;;6260441;28;20041;-71
2023/06/18 08:06:24;;;;;;;6.35;4.13;;;28.90;35.10;;;;;;6241051;28;20036;-70
2023/06/18 08:09:25;;;;;;;6.00;3.47;;;29.00;34.80;;;;;;6264010;28;20133;-70
2023/06/18 08:12:26;;;;;;;5.03;3.80;;;29.10;34.90;;;;;;6263781;28;20556;-71
2023/06/18 08:15:27;;;;;;;4.50;3.65;;;29.10;34.80;;;;;;6247323;28;20457;-71
2023/06/18 08:18:28;;;;;;;6.07;4.10;;;29.20;34.30;;;;;;6265262;28;20059;-70
2023/06/18 08:21:29;;;;;;;6.18;3.75;;;29.50;34.20;;;;;;6265423;28;20492;-70
2023/06/18 08:24:30;;;;;;;5.47;3.85;;;29.80;33.70;;;;;;6253836;28;20053;-71
2023/06/18 08:27:31;;;;;;;4.25;3.50;;;30.10;33.30;;;;;;6251800;28;20171;-69
2023/06/18 08:30:32;;;;;;;5.35;4.15;;;30.20;33.20;;;;;;6249982;28;20357;-69
2023/06/18 08:33:33;;;;;;;5.75;3.53;;;30.30;33.20;;;;;;6260973;28;20077;-69
2023/06/18 08:36:33;;;;;;;6.50;3.85;;;30.30;33.20;;;;;;6261924;28;20044;-69
2023/06/18 08:39:34;;;;;;;4.85;3.95;;;30.30;33.20;;;;;;6242836;28;20044;-70
2023/06/18 08:42:35;;;;;;;9.48;4.82;;;30.30;32.90;;;;;;6259765;28;20021;-70
2023/06/18 08:45:36;;;;;;;4.85;3.70;;;30.20;32.60;;;;;;6253474;28;20117;-70
2023/06/18 08:48:48;;;;;;;5.53;3.70;;;30.10;32.40;;;;;;6248056;28;20130;-70
2023/06/18 08:51:53;;;;;;;6.18;4.30;;;30.10;32.50;;;;;;6249227;28;20334;-69
2023/06/18 08:54:57;;;;;;;9.40;4.13;;;30.10;32.50;;;;;;6246098;28;20265;-70
2023/06/18 08:58:00;;;;;;;10.00;4.35;;;30.00;32.40;;;;;;6241866;28;20033;-70
2023/06/18 09:01:01;;;;;;;6.00;3.97;;;30.00;32.50;;;;;;6258712;28;20100;-71
2023/06/18 09:04:03;;;;;;;8.85;4.45;;;30.00;32.50;;;;;;6251963;28;20074;-71
2023/06/18 09:07:04;;;;;;;5.15;3.70;;;30.00;32.30;;;;;;6264828;28;20106;-69
2023/06/18 09:10:06;;;;;;;6.25;3.53;;;30.00;32.20;;;;;;6265226;28;20459;-70
2023/06/18 09:13:06;;;;;;;8.65;4.53;;;30.00;32.00;;;;;;6241865;28;20037;-71
2023/06/18 09:16:09;;;;;;;7.93;4.00;;;30.00;32.10;;;;;;6256640;28;20127;-70
2023/06/18 09:19:10;;;;;;;6.05;3.95;;;30.10;32.20;;;;;;6280460;28;20040;-71
2023/06/18 09:22:13;;;;;;;8.00;4.32;;;30.10;32.20;;;;;;6263264;28;20036;-71
2023/06/18 09:25:21;;;;;;;9.73;4.82;;;30.10;32.30;;;;;;6265160;28;20063;-70
2023/06/18 09:28:23;;;;;;;6.07;4.32;;;30.10;32.30;;;;;;6247188;28;20044;-71
2023/06/18 09:31:27;;;;;;;6.80;4.07;;;30.00;32.40;;;;;;6264261;28;20033;-71
2023/06/18 09:34:31;;;;;;;6.70;4.45;;;29.80;32.60;;;;;;6248627;28;20080;-71
2023/06/18 09:37:32;;;;;;;4.78;3.95;;;29.70;32.80;;;;;;6239297;28;20060;-71
2023/06/18 09:40:33;;;;;;;5.57;3.63;;;29.70;33.40;;;;;;6237965;28;20060;-70
2023/06/18 09:43:36;;;;;;;5.57;3.88;;;29.70;34.20;;;;;;6237273;28;20203;-71
2023/06/18 09:46:36;;;;;;;6.20;4.00;;;29.70;34.40;;;;;;6237763;28;20175;-71
2023/06/18 09:49:39;;;;;;;7.55;4.50;;;29.80;34.40;;;;;;6221754;28;20087;-70
2023/06/18 09:52:42;;;;;;;8.48;3.92;;;30.00;34.40;;;;;;6237119;28;20116;-70
2023/06/18 09:55:43;;;;;;;7.75;4.15;;;30.00;34.30;;;;;;6237591;28;20048;-69
2023/06/18 09:58:47;;;;;;;6.47;4.63;;;30.10;34.10;;;;;;6237427;28;20460;-69
2023/06/18 10:01:49;;;;;;;7.97;4.30;;;30.20;33.80;;;;;;6237079;28;20128;-70
2023/06/18 10:04:50;;;;;;;5.20;3.92;;;30.20;33.80;;;;;;6237092;28;20099;-69
2023/06/18 10:07:51;;;;;;;7.57;4.15;;;30.30;33.80;;;;;;6242804;28;20116;-70
2023/06/18 10:10:53;;;;;;;6.95;4.57;;;30.30;33.80;;;;;;6252342;28;20104;-71
2023/06/18 10:13:57;;;;;;;6.30;4.15;;;30.30;34.20;;;;;;6253378;28;20025;-70
2023/06/18 10:17:02;;;;;;;8.73;4.90;;;30.20;34.60;;;;;;6255695;28;20068;-69
2023/06/18 10:20:08;;;;;;;5.00;3.78;;;30.20;35.20;;;;;;6254481;28;20040;-69
2023/06/18 10:23:10;;;;;;;7.40;5.25;;;30.20;35.70;;;;;;6254199;28;20047;-70
2023/06/18 10:26:11;;;;;;;8.77;4.70;;;30.10;36.10;;;;;;6246452;28;20063;-70
2023/06/18 10:29:12;;;;;;;7.65;4.68;;;30.00;36.50;;;;;;6253786;28;20113;-71
2023/06/18 10:32:13;;;;;;;7.30;4.43;;;29.80;36.90;;;;;;6220395;28;20053;-68
2023/06/18 10:35:14;;;;;;;13.80;5.25;;;29.60;37.00;;;;;;6254478;28;20133;-70
2023/06/18 10:38:16;;;;;;;6.25;4.43;;;29.50;37.20;;;;;;6254114;28;20055;-68
2023/06/18 10:41:19;;;;;;;9.60;5.20;;;29.40;37.50;;;;;;6252658;28;20035;-70
2023/06/18 10:44:34;;;;;;;9.00;5.35;;;29.30;37.50;;;;;;6260831;28;20400;-71
2023/06/18 10:47:36;;;;;;;7.22;4.18;;;29.30;37.70;;;;;;6255939;28;20061;-69
2023/06/18 10:50:37;;;;;;;8.57;4.53;;;29.40;37.60;;;;;;6251121;28;20079;-68
2023/06/18 10:53:37;;;;;;;6.15;4.50;;;29.50;37.60;;;;;;6246999;28;20103;-70
2023/06/18 10:56:38;;;;;;;7.30;4.90;;;29.60;38.10;;;;;;6260311;28;20457;-69
2023/06/18 10:59:43;;;;;;;7.90;4.40;;;29.60;37.20;;;;;;6241483;28;20048;-70
2023/06/18 11:02:46;;;;;;;9.63;4.80;;;29.60;37.20;;;;;;6245916;28;20401;-70
2023/06/18 11:05:48;;;;;;;8.27;4.82;;;29.50;37.30;;;;;;6256887;28;20094;-71
2023/06/18 11:08:53;;;;;;;10.07;4.82;;;29.40;37.50;;;;;;6250096;28;20688;-70
2023/06/18 11:11:54;;;;;;;10.07;4.60;;;29.30;37.60;;;;;;6252866;28;20036;-70
2023/06/18 11:15:15;;;;;;;7.53;4.53;;;29.30;37.50;;;;;;6246682;28;20021;-70
2023/06/18 11:18:21;;;;;;;8.63;5.22;;;29.30;37.50;;;;;;6250205;28;20672;-70
2023/06/18 11:21:22;;;;;;;7.47;4.97;;;29.30;37.40;;;;;;6257821;28;20120;-71
2023/06/18 11:24:23;;;;;;;6.45;4.57;;;29.30;37.30;;;;;;6240860;28;20067;-71
2023/06/18 11:27:30;;;;;;;9.57;5.20;;;29.40;37.30;;;;;;6254143;28;20028;-70
2023/06/18 11:30:32;;;;;;;9.57;5.15;;;29.50;37.30;;;;;;6267132;28;20041;-70
2023/06/18 11:33:32;;;;;;;12.98;4.68;;;29.60;37.00;;;;;;6265161;28;20033;-70
2023/06/18 11:36:39;;;;;;;6.13;4.78;;;29.80;36.90;;;;;;6249068;28;20112;-70
2023/06/18 11:39:41;;;;;;;6.22;4.32;;;30.00;36.60;;;;;;6251227;28;20029;-70
2023/06/18 11:42:50;;;;;;;18.85;4.72;;;30.10;36.50;;;;;;6249808;28;20443;-72
2023/06/18 11:45:53;;;;;;;7.55;4.70;;;30.30;36.40;;;;;;6254440;28;20214;-70
2023/06/18 11:48:54;;;;;;;7.22;4.68;;;30.40;36.30;;;;;;6246074;28;20119;-70
2023/06/18 11:51:56;;;;;;;7.22;4.65;;;30.40;36.20;;;;;;6266163;28;20036;-71
2023/06/18 11:55:03;;;;;;;7.10;4.47;;;30.60;36.10;;;;;;6250066;28;20031;-70
2023/06/18 11:58:05;;;;;;;5.35;4.68;;;31.00;36.00;;;;;;6234767;28;20118;-71
2023/06/18 12:01:06;;;;;;;8.52;5.07;;;32.00;34.90;;;;;;6263356;28;20634;-70
2023/06/18 12:04:08;;;;;;;7.55;4.93;;;32.90;33.60;;;;;;6254260;28;20096;-71
2023/06/18 12:07:15;;;;;;;10.82;5.18;;;33.70;32.60;;;;;;6249158;28;20040;-70
2023/06/18 12:10:16;;;;;;;6.63;4.85;;;34.30;31.70;;;;;;6262219;28;20037;-71
2023/06/18 12:13:31;;;;;;;6.63;4.95;;;34.50;30.70;;;;;;6265289;28;20033;-72
2023/06/18 12:16:35;;;;;;;6.63;4.20;;;34.60;30.60;;;;;;6255882;28;20030;-70
2023/06/18 12:19:37;;;;;;;5.53;4.45;;;34.60;30.30;;;;;;6232265;28;20032;-70
2023/06/18 12:22:40;;;;;;;6.75;4.78;;;34.60;30.30;;;;;;6249158;28;20108;-71
2023/06/18 12:25:42;;;;;;;5.85;4.30;;;34.70;30.60;;;;;;6252748;28;20023;-70
2023/06/18 12:28:44;;;;;;;6.28;4.82;;;34.90;30.30;;;;;;6250489;28;20029;-70
2023/06/18 12:32:03;;;;;;;8.07;4.50;;;34.80;30.50;;;;;;6260719;28;20044;-70
2023/06/18 12:35:15;;;;;;;9.50;4.50;;;34.90;30.40;;;;;;6265217;28;20114;-70
2023/06/18 12:38:16;;;;;;;9.65;4.40;;;35.30;30.10;;;;;;6248942;28;20545;-70
2023/06/18 12:41:29;;;;;;;6.72;4.32;;;35.60;30.20;;;;;;6244330;28;20035;-72
2023/06/18 12:44:31;;;;;;;7.25;4.75;;;36.00;29.50;;;;;;6238848;28;20068;-71
2023/06/18 12:47:37;;;;;;;6.22;4.28;;;36.50;29.20;;;;;;6240259;28;20035;-72
2023/06/18 12:50:37;;;;;;;7.65;5.03;;;37.00;28.70;;;;;;6241661;28;20478;-69
2023/06/18 12:53:41;;;;;;;8.43;4.82;;;37.20;28.40;;;;;;6257852;28;20044;-71
2023/06/18 12:56:50;;;;;;;6.32;4.20;;;37.30;28.00;;;;;;6256698;28;20105;-70
2023/06/18 12:59:51;;;;;;;6.90;5.20;;;36.80;28.50;;;;;;6254989;28;20025;-71
2023/06/18 13:02:53;;;;;;;8.90;4.72;;;36.00;29.30;;;;;;6246193;28;20520;-70
2023/06/18 13:05:56;;;;;;;8.27;4.75;;;35.30;29.90;;;;;;6252991;28;20167;-72
2023/06/18 13:08:58;;;;;;;6.10;4.55;;;35.00;30.00;;;;;;6250833;28;20057;-72
2023/06/18 13:11:59;;;;;;;5.75;4.50;;;34.80;30.10;;;;;;6255635;28;20080;-73
2023/06/18 13:15:00;;;;;;;6.40;4.45;;;34.40;30.70;;;;;;6238158;28;20037;-70
2023/06/18 13:18:02;;;;;;;8.68;4.43;;;34.00;31.40;;;;;;6239565;28;20629;-70
2023/06/18 13:21:02;;;;;;;8.57;4.75;;;33.70;32.00;;;;;;6238239;28;20028;-72
2023/06/18 13:24:04;;;;;;;7.38;4.40;;;33.50;32.40;;;;;;6240466;28;20365;-71
2023/06/18 13:27:06;;;;;;;6.78;4.30;;;33.50;32.50;;;;;;6254473;28;20037;-71
2023/06/18 13:30:08;;;;;;;6.70;4.32;;;33.50;32.60;;;;;;6264616;28;20557;-71
2023/06/18 13:33:09;;;;;;;5.72;4.20;;;33.30;33.10;;;;;;6261575;28;20033;-70
2023/06/18 13:36:10;;;;;;;7.72;4.45;;;33.10;33.60;;;;;;6245938;28;20032;-70
2023/06/18 13:39:11;;;;;;;15.63;4.90;;;33.00;33.80;;;;;;6239817;28;20029;-72
2023/06/18 13:42:14;;;;;;;8.57;4.93;;;33.80;33.40;;;;;;6238658;28;20028;-73
2023/06/18 13:45:15;;;;;;;5.80;4.60;;;34.80;32.20;;;;;;6249054;28;20025;-72
2023/06/18 13:48:16;;;;;;;6.57;4.50;;;35.70;31.10;;;;;;6258061;28;20033;-73
2023/06/18 13:51:17;;;;;;;6.30;4.50;;;36.70;29.90;;;;;;6242287;28;20044;-71
2023/06/18 13:54:18;;;;;;;11.15;4.70;;;37.50;29.10;;;;;;6262430;28;20112;-70
2023/06/18 13:57:19;;;;;;;5.80;4.63;;;38.20;28.40;;;;;;6252531;28;20044;-72
2023/06/18 14:00:21;;;;;;;6.53;4.47;;;38.30;28.00;;;;;;6256792;28;20313;-73
2023/06/18 14:03:22;;;;;;;10.20;5.45;;;38.90;27.80;;;;;;6259153;28;20029;-70
2023/06/18 14:06:23;;;;;;;4.55;4.07;;;39.40;27.10;;;;;;6256406;28;20107;-71
2023/06/18 14:09:25;;;;;;;4.75;4.10;;;39.30;26.90;;;;;;6255426;28;20174;-72
2023/06/18 14:12:27;;;;;;;7.63;4.30;;;39.90;26.80;;;;;;6243442;28;20436;-71
2023/06/18 14:15:28;;;;;;;5.25;4.75;;;40.60;26.00;;;;;;6245999;28;20032;-71
2023/06/18 14:18:29;;;;;;;5.60;4.30;;;41.20;25.30;;;;;;6255982;28;20021;-71
2023/06/18 14:21:30;;;;;;;5.68;4.30;;;41.80;24.80;;;;;;6255017;28;20022;-72
2023/06/18 14:24:31;;;;;;;9.95;4.55;;;42.40;24.30;;;;;;6259462;28;20033;-73
2023/06/18 14:27:33;;;;;;;9.55;4.30;;;42.60;23.90;;;;;;6252791;28;20457;-73
2023/06/18 14:30:35;;;;;;;10.15;4.22;;;41.80;24.20;;;;;;6251288;28;20045;-73
2023/06/18 14:33:35;;;;;;;7.43;4.20;;;40.60;25.10;;;;;;6256237;28;20033;-74
2023/06/18 14:36:36;;;;;;;4.90;3.90;;;39.40;26.00;;;;;;6252694;28;20195;-73
2023/06/18 14:39:37;;;;;;;7.38;4.13;;;39.50;25.80;;;;;;6237296;28;20037;-73
2023/06/18 14:42:38;;;;;;;9.43;4.20;;;40.00;25.40;;;;;;6249825;28;20029;-72
2023/06/18 14:45:39;;;;;;;7.72;4.07;;;40.10;25.00;;;;;;6252166;28;20048;-72
2023/06/18 14:48:40;;;;;;;5.05;3.72;;;39.90;25.10;;;;;;6258244;28;20109;-73
2023/06/18 14:51:41;;;;;;;6.95;3.90;;;39.90;25.00;;;;;;6261165;28;20052;-72
2023/06/18 14:54:42;;;;;;;3.97;3.00;;;40.10;24.20;;;;;;6254728;28;20038;-72
2023/06/18 14:57:42;;;;;;;5.25;2.88;;;40.40;23.00;;;;;;6256967;28;20640;-73
2023/06/18 15:00:44;;;;;;;7.28;3.45;;;40.80;22.60;;;;;;6260148;28;20222;-72
2023/06/18 15:03:45;;;;;;;7.85;3.22;;;41.20;22.10;;;;;;6255651;28;20036;-74
2023/06/18 15:06:46;;;;;;;5.75;3.35;;;41.60;21.90;;;;;;6258048;28;20058;-73
2023/06/18 15:09:46;;;;;;;4.72;3.40;;;41.90;21.30;;;;;;6246130;28;20025;-74
2023/06/18 15:12:48;;;;;;;3.75;2.75;;;42.10;21.00;;;;;;6259203;28;20026;-73
2023/06/18 15:15:49;;;;;;;3.38;3.00;;;42.50;20.60;;;;;;6250646;28;20458;-73
2023/06/18 15:18:51;;;;;;;3.28;2.88;;;43.00;20.20;;;;;;6260356;28;20334;-74
2023/06/18 15:21:52;;;;;;;4.63;3.42;;;43.40;19.90;;;;;;6255840;28;20057;-74
2023/06/18 15:24:54;;;;;;;6.40;3.05;;;43.90;19.60;;;;;;6253820;28;20039;-73
2023/06/18 15:27:55;;;;;;;4.38;2.80;;;44.50;19.50;;;;;;6253659;28;20044;-72
2023/06/18 15:30:55;;;;;;;6.13;2.92;;;45.00;19.10;;;;;;6254556;28;20025;-73
2023/06/18 15:33:56;;;;;;;6.97;2.78;;;45.20;19.00;;;;;;6245984;28;20084;-72
2023/06/18 15:36:57;;;;;;;4.45;3.08;;;45.60;18.60;;;;;;6247678;28;20514;-72
2023/06/18 15:39:58;;;;;;;3.75;2.72;;;45.50;18.50;;;;;;6251530;28;20543;-72
2023/06/18 15:42:59;;;;;;;4.40;3.03;;;45.70;18.50;;;;;;6246076;28;20061;-72
2023/06/18 15:46:00;;;;;;;3.53;2.97;;;46.00;18.20;;;;;;6241359;28;20044;-73